createdAt,value
2023-01-12T00:01:44.801Z,63.91
2023-01-12T00:04:13.200Z,63.81
2023-01-12T00:06:40.695Z,63.86
2023-01-12T00:09:08.150Z,64.32
2023-01-12T00:11:36.365Z,63.83
2023-01-12T00:14:04.604Z,63.89
2023-01-12T00:16:34.918Z,64.04
2023-01-12T00:19:11.814Z,63.78
2023-01-12T00:21:59.369Z,63.57
2023-01-12T00:24:28.720Z,63.61
2023-01-12T00:26:56.836Z,63.55
2023-01-12T00:29:24.604Z,63.60
2023-01-12T00:31:52.992Z,63.46
2023-01-12T00:34:20.445Z,63.24
2023-01-12T00:36:47.991Z,63.85
2023-01-12T00:39:15.973Z,63.63
2023-01-12T00:42:01.942Z,63.70
2023-01-12T00:44:48.469Z,63.38
2023-01-12T00:47:16.069Z,63.82
2023-01-12T00:49:43.765Z,64.55
2023-01-12T00:52:29.504Z,63.55
2023-01-12T00:54:59.229Z,63.30
2023-01-12T00:57:26.783Z,63.01
2023-01-12T00:59:55.555Z,62.93
2023-01-12T01:02:23.611Z,63.31
2023-01-12T01:04:51.075Z,62.95
2023-01-12T01:07:18.717Z,61.54
2023-01-12T01:09:46.566Z,61.93
2023-01-12T01:12:13.889Z,61.51
2023-01-12T01:14:41.294Z,62.25
2023-01-12T01:17:08.960Z,61.91
2023-01-12T01:19:37.079Z,61.68
2023-01-12T01:22:04.548Z,61.60
2023-01-12T01:24:32.535Z,61.43
2023-01-12T01:26:59.908Z,61.65
2023-01-12T01:29:27.275Z,61.44
2023-01-12T01:31:55.382Z,61.37
2023-01-12T01:34:23.991Z,62.28
2023-01-12T01:36:51.408Z,62.05
2023-01-12T01:39:19.078Z,61.63
2023-01-12T01:41:48.047Z,62.37
2023-01-12T01:44:30.404Z,61.97
2023-01-12T01:47:02.885Z,62.01
2023-01-12T01:49:43.591Z,62.04
2023-01-12T01:52:16.989Z,62.09
2023-01-12T01:54:51.706Z,62.55
2023-01-12T01:57:19.354Z,62.06
2023-01-12T01:59:49.224Z,62.30
2023-01-12T02:02:16.718Z,62.34
2023-01-12T02:04:44.372Z,62.35
2023-01-12T02:07:12.127Z,62.01
2023-01-12T02:09:39.511Z,61.42
2023-01-12T02:12:26.117Z,61.41
2023-01-12T02:15:12.618Z,61.10
2023-01-12T02:18:13.791Z,61.77
2023-01-12T02:20:55.089Z,62.48
2023-01-12T02:23:22.359Z,62.12
2023-01-12T02:25:58.636Z,62.25
2023-01-12T02:28:31.066Z,62.65
2023-01-12T02:31:26.538Z,64.50
2023-01-12T02:34:25.064Z,65.00
2023-01-12T02:36:58.743Z,67.75
2023-01-12T02:39:39.165Z,65.87
2023-01-12T02:42:40.842Z,65.83
2023-01-12T02:45:17.271Z,64.95
2023-01-12T02:47:44.725Z,64.71
2023-01-12T02:50:14.483Z,64.63
2023-01-12T02:52:43.477Z,64.21
2023-01-12T02:55:11.094Z,63.87
2023-01-12T02:57:38.442Z,63.35
2023-01-12T03:00:06.241Z,64.02
2023-01-12T03:02:33.853Z,63.77
2023-01-12T03:05:01.262Z,63.68
2023-01-12T03:07:41.384Z,63.70
2023-01-12T03:10:28.131Z,64.20
2023-01-12T03:12:55.632Z,64.32
2023-01-12T03:15:23.159Z,63.37
2023-01-12T03:17:58.394Z,63.76
2023-01-12T03:20:28.839Z,63.24
2023-01-12T03:22:59.699Z,62.94
2023-01-12T03:25:27.320Z,62.99
2023-01-12T03:27:55.520Z,62.47
2023-01-12T03:30:30.283Z,61.97
2023-01-12T03:32:57.967Z,63.72
2023-01-12T03:35:26.674Z,63.89
2023-01-12T03:38:07.965Z,63.22
2023-01-12T03:40:38.030Z,64.45
2023-01-12T03:43:28.757Z,64.70
2023-01-12T03:46:19.079Z,64.02
2023-01-12T03:48:48.455Z,63.77
2023-01-12T03:51:19.950Z,63.85
2023-01-12T03:53:49.384Z,63.39
2023-01-12T03:56:17.896Z,63.33
2023-01-12T03:58:45.289Z,63.62
2023-01-12T04:01:12.716Z,64.48
2023-01-12T04:03:40.438Z,63.93
2023-01-12T04:06:08.430Z,63.45
2023-01-12T04:08:35.791Z,63.33
2023-01-12T04:11:26.445Z,63.15
2023-01-12T04:13:53.778Z,63.29
2023-01-12T04:16:21.418Z,63.38
2023-01-12T04:18:49.001Z,62.63
2023-01-12T04:21:34.940Z,62.44
2023-01-12T04:24:02.586Z,63.37
2023-01-12T04:26:29.939Z,63.36
2023-01-12T04:28:57.261Z,63.55
2023-01-12T04:31:24.943Z,64.31
2023-01-12T04:33:52.334Z,63.66
2023-01-12T04:36:19.692Z,64.20
2023-01-12T04:38:47.397Z,63.40
2023-01-12T04:41:14.825Z,63.19
2023-01-12T04:43:42.203Z,63.39
2023-01-12T04:46:10.611Z,63.24
2023-01-12T04:48:43.593Z,63.35
2023-01-12T04:51:11.255Z,63.09
2023-01-12T04:53:38.693Z,62.63
2023-01-12T04:56:06.678Z,62.95
2023-01-12T04:58:35.037Z,63.13
2023-01-12T05:01:12.302Z,62.64
2023-01-12T05:03:40.032Z,63.11
2023-01-12T05:06:07.458Z,62.96
2023-01-12T05:08:53.700Z,63.20
2023-01-12T05:11:21.359Z,62.98
2023-01-12T05:13:48.633Z,63.80
2023-01-12T05:16:17.317Z,64.55
2023-01-12T05:18:45.367Z,64.05
2023-01-12T05:21:15.583Z,64.01
2023-01-12T05:23:42.986Z,63.51
2023-01-12T05:26:10.900Z,63.53
2023-01-12T05:28:38.285Z,64.40
2023-01-12T05:31:07.675Z,65.80
2023-01-12T05:33:35.709Z,65.73
2023-01-12T05:36:14.399Z,68.03
2023-01-12T05:38:42.021Z,67.66
2023-01-12T05:41:10.551Z,65.65
2023-01-12T05:43:54.373Z,64.92
2023-01-12T05:46:29.658Z,64.66
2023-01-12T05:48:57.860Z,66.79
2023-01-12T05:51:26.280Z,65.58
2023-01-12T05:53:54.689Z,65.12
2023-01-12T05:56:25.673Z,64.93
2023-01-12T05:58:54.730Z,63.69
2023-01-12T06:01:22.586Z,64.76
2023-01-12T06:03:56.960Z,65.78
2023-01-12T06:06:26.156Z,66.21
2023-01-12T06:08:53.983Z,66.19
2023-01-12T06:11:40.074Z,67.64
2023-01-12T06:14:07.708Z,67.50
2023-01-12T06:16:36.966Z,67.50
2023-01-12T06:19:04.402Z,67.36
2023-01-12T06:21:32.726Z,66.12
2023-01-12T06:24:00.043Z,65.10
2023-01-12T06:26:27.442Z,64.96
2023-01-12T06:28:55.097Z,65.04
2023-01-12T06:31:22.491Z,65.25
2023-01-12T06:33:49.964Z,64.41
2023-01-12T06:36:17.574Z,63.41
2023-01-12T06:38:44.928Z,63.83
2023-01-12T06:41:32.882Z,63.63
2023-01-12T06:44:00.656Z,63.14
2023-01-12T06:46:28.347Z,63.00
2023-01-12T06:48:57.145Z,63.43
2023-01-12T06:51:24.999Z,63.89
2023-01-12T06:53:52.423Z,64.00
2023-01-12T06:56:19.798Z,63.00
2023-01-12T06:58:47.434Z,67.51
2023-01-12T07:01:14.929Z,64.82
2023-01-12T07:03:42.452Z,63.80
2023-01-12T07:06:10.342Z,63.21
2023-01-12T07:08:37.750Z,62.70
2023-01-12T07:11:07.927Z,63.21
2023-01-12T07:13:35.577Z,61.89
2023-01-12T07:16:03.081Z,62.34
2023-01-12T07:18:33.537Z,63.54
2023-01-12T07:21:08.942Z,62.92
2023-01-12T07:23:37.818Z,63.68
2023-01-12T07:26:05.522Z,63.08
2023-01-12T07:28:33.858Z,62.83
2023-01-12T07:31:02.265Z,61.37
2023-01-12T07:33:29.924Z,62.59
2023-01-12T07:35:59.009Z,61.95
2023-01-12T07:38:27.326Z,61.75
2023-01-12T07:40:54.973Z,61.28
2023-01-12T07:43:23.369Z,61.12
2023-01-12T07:45:50.728Z,60.91
2023-01-12T07:48:18.426Z,60.37
2023-01-12T07:50:45.788Z,60.33
2023-01-12T07:53:13.170Z,60.34
2023-01-12T07:55:43.689Z,60.27
2023-01-12T07:58:11.124Z,60.12
2023-01-12T08:00:38.483Z,59.98
2023-01-12T08:03:07.861Z,59.46
2023-01-12T08:05:35.647Z,59.63
2023-01-12T08:08:03.767Z,59.57
2023-01-12T08:10:31.538Z,59.51
2023-01-12T08:12:59.123Z,59.65
2023-01-12T08:15:26.533Z,59.39
2023-01-12T08:18:08.520Z,59.47
2023-01-12T08:20:36.241Z,59.71
2023-01-12T08:23:26.098Z,59.18
2023-01-12T08:25:59.213Z,59.24
2023-01-12T08:28:33.827Z,58.98
2023-01-12T08:31:01.356Z,58.51
2023-01-12T08:33:29.006Z,58.02
2023-01-12T08:35:56.383Z,59.21
2023-01-12T08:38:23.765Z,58.69
2023-01-12T08:41:12.297Z,58.92
2023-01-12T08:43:58.309Z,60.81
2023-01-12T08:46:26.274Z,60.50
2023-01-12T08:48:53.997Z,60.85
2023-01-12T08:51:21.395Z,61.06
2023-01-12T08:53:49.160Z,61.69
2023-01-12T08:56:16.581Z,61.58
2023-01-12T08:58:44.012Z,62.68
2023-01-12T09:01:14.028Z,62.35
2023-01-12T09:03:41.721Z,61.10
2023-01-12T09:06:15.846Z,64.10
2023-01-12T09:08:43.733Z,63.74
2023-01-12T09:11:11.609Z,64.59
2023-01-12T09:13:39.066Z,64.60
2023-01-12T09:16:12.729Z,62.49
2023-01-12T09:18:41.050Z,62.78
2023-01-12T09:21:13.037Z,62.94
2023-01-12T09:23:40.469Z,62.60
2023-01-12T09:26:09.480Z,64.32
2023-01-12T09:28:37.138Z,64.14
2023-01-12T09:31:08.745Z,65.00
2023-01-12T09:33:36.779Z,65.22
2023-01-12T09:36:06.145Z,64.63
2023-01-12T09:38:40.446Z,62.24
2023-01-12T09:41:16.780Z,62.88
2023-01-12T09:44:03.063Z,62.14
2023-01-12T09:46:54.039Z,65.22
2023-01-12T09:49:22.636Z,64.29
2023-01-12T09:51:54.320Z,65.32
2023-01-12T09:54:21.721Z,68.85
2023-01-12T09:57:24.411Z,64.41
2023-01-12T10:00:03.640Z,66.29
2023-01-12T10:02:42.094Z,66.12
2023-01-12T10:05:18.094Z,65.45
2023-01-12T10:07:45.514Z,63.64
2023-01-12T10:10:16.083Z,65.82
2023-01-12T10:12:46.451Z,66.49
2023-01-12T10:15:26.077Z,66.11
2023-01-12T10:18:15.487Z,65.85
2023-01-12T10:20:43.581Z,66.97
2023-01-12T10:23:16.796Z,65.66
2023-01-12T10:25:51.979Z,64.85
2023-01-12T10:28:33.402Z,65.75
2023-01-12T10:31:01.222Z,63.49
2023-01-12T10:33:30.237Z,62.18
2023-01-12T10:36:07.480Z,62.76
2023-01-12T10:38:39.302Z,61.47
2023-01-12T10:41:14.050Z,61.22
2023-01-12T10:43:41.973Z,63.04
2023-01-12T10:46:09.304Z,63.33
2023-01-12T10:48:38.929Z,68.41
2023-01-12T10:51:30.271Z,67.04
2023-01-12T10:54:10.179Z,66.69
2023-01-12T10:56:42.018Z,63.66
2023-01-12T10:59:12.431Z,62.16
2023-01-12T11:01:46.935Z,62.26
2023-01-12T11:04:16.848Z,67.35
2023-01-12T11:06:45.422Z,67.07
2023-01-12T11:09:22.953Z,68.74
2023-01-12T11:11:54.239Z,67.17
2023-01-12T11:14:26.626Z,66.28
2023-01-12T11:16:54.722Z,65.33
2023-01-12T11:19:26.670Z,66.36
2023-01-12T11:21:57.746Z,65.49
2023-01-12T11:24:42.367Z,66.59
2023-01-12T11:27:20.933Z,66.86
2023-01-12T11:30:02.305Z,69.06
2023-01-12T11:32:42.238Z,66.98
2023-01-12T11:35:30.075Z,65.46
2023-01-12T11:37:59.915Z,65.32
2023-01-12T11:40:34.636Z,66.22
2023-01-12T11:43:44.153Z,68.07
2023-01-12T11:46:17.214Z,65.56
2023-01-12T11:49:25.367Z,67.00
2023-01-12T11:51:56.909Z,66.70
2023-01-12T11:54:28.445Z,66.57
2023-01-12T11:57:14.032Z,66.79
2023-01-12T11:59:59.933Z,69.45
2023-01-12T12:02:40.634Z,68.93
2023-01-12T12:05:23.478Z,66.44
2023-01-12T12:08:24.485Z,65.34
2023-01-12T12:11:20.005Z,63.84
2023-01-12T12:14:12.159Z,65.70
2023-01-12T12:16:51.579Z,63.64
2023-01-12T12:19:48.407Z,64.45
2023-01-12T12:22:30.912Z,64.34
2023-01-12T12:25:28.529Z,62.53
2023-01-12T12:28:02.084Z,63.01
2023-01-12T12:30:57.880Z,62.33
2023-01-12T12:33:50.274Z,62.92
2023-01-12T12:36:45.837Z,62.50
2023-01-12T12:39:48.118Z,63.68
2023-01-12T12:42:33.999Z,63.33
2023-01-12T12:45:16.455Z,63.66
2023-01-12T12:48:02.108Z,62.25
2023-01-12T12:50:39.833Z,61.63
2023-01-12T12:53:25.296Z,61.97
2023-01-12T12:55:53.403Z,63.22
2023-01-12T12:58:20.695Z,62.94
2023-01-12T13:00:49.007Z,62.13
2023-01-12T13:03:45.011Z,63.61
2023-01-12T13:06:34.847Z,62.41
2023-01-12T13:09:10.555Z,63.51
2023-01-12T13:12:00.187Z,62.28
2023-01-12T13:14:31.100Z,65.38
2023-01-12T13:17:18.555Z,65.53
2023-01-12T13:19:49.734Z,63.74
2023-01-12T13:22:32.362Z,62.03
2023-01-12T13:25:09.939Z,61.83
2023-01-12T13:28:09.551Z,62.15
2023-01-12T13:30:51.249Z,61.85
2023-01-12T13:33:29.053Z,62.58
2023-01-12T13:36:01.013Z,61.61
2023-01-12T13:38:36.233Z,61.60
2023-01-12T13:41:41.046Z,62.05
2023-01-12T13:44:11.810Z,61.75
2023-01-12T13:46:47.132Z,62.46
2023-01-12T13:49:29.666Z,62.78
2023-01-12T13:52:21.560Z,62.10
2023-01-12T13:54:49.908Z,61.60
2023-01-12T13:57:24.876Z,61.99
2023-01-12T13:59:58.127Z,61.64
2023-01-12T14:02:28.278Z,61.77
2023-01-12T14:05:14.694Z,62.56
2023-01-12T14:07:52.800Z,60.95
2023-01-12T14:10:42.437Z,60.55
2023-01-12T14:13:32.689Z,60.42
2023-01-12T14:16:19.664Z,60.56
2023-01-12T14:18:48.489Z,60.15
2023-01-12T14:21:39.353Z,60.42
2023-01-12T14:24:26.938Z,60.60
2023-01-12T14:26:54.580Z,60.42
2023-01-12T14:29:21.967Z,60.04
2023-01-12T14:31:51.180Z,59.94
2023-01-12T14:34:29.548Z,60.46
2023-01-12T14:36:57.954Z,60.37
2023-01-12T14:39:26.857Z,60.22
2023-01-12T14:42:13.814Z,61.22
2023-01-12T14:45:11.014Z,61.30
2023-01-12T14:47:38.852Z,61.17
2023-01-12T14:50:12.454Z,61.32
2023-01-12T14:52:40.919Z,61.11
2023-01-12T14:55:28.245Z,61.32
2023-01-12T14:58:01.797Z,61.85
2023-01-12T15:00:34.410Z,62.12
2023-01-12T15:03:04.824Z,62.00
2023-01-12T15:05:33.430Z,62.49
2023-01-12T15:08:04.250Z,62.77
2023-01-12T15:10:36.220Z,63.00
2023-01-12T15:13:24.866Z,63.02
2023-01-12T15:16:11.100Z,62.81
2023-01-12T15:18:57.390Z,62.53
2023-01-12T15:21:43.909Z,62.52
2023-01-12T15:24:49.205Z,62.55
2023-01-12T15:27:18.394Z,62.53
2023-01-12T15:29:45.919Z,62.75
2023-01-12T15:32:20.574Z,62.94
2023-01-12T15:34:48.324Z,63.48
2023-01-12T15:37:16.834Z,63.10
2023-01-12T15:39:44.494Z,63.24
2023-01-12T15:42:16.169Z,63.69
2023-01-12T15:44:46.119Z,63.40
2023-01-12T15:47:14.743Z,63.43
2023-01-12T15:49:43.109Z,63.62
2023-01-12T15:52:14.853Z,63.51
2023-01-12T15:54:42.835Z,63.63
2023-01-12T15:57:13.734Z,63.73
2023-01-12T15:59:41.242Z,63.98
2023-01-12T16:02:34.150Z,64.01
2023-01-12T16:05:03.066Z,64.20
2023-01-12T16:07:30.515Z,64.12
2023-01-12T16:09:58.125Z,64.55
2023-01-12T16:12:26.096Z,64.43
2023-01-12T16:14:53.602Z,64.40
2023-01-12T16:17:20.961Z,64.53
2023-01-12T16:19:48.605Z,64.64
2023-01-12T16:22:17.890Z,64.91
2023-01-12T16:24:45.348Z,65.45
2023-01-12T16:27:13.092Z,65.44
2023-01-12T16:29:40.456Z,64.98
2023-01-12T16:32:07.912Z,65.15
2023-01-12T16:34:35.925Z,64.77
2023-01-12T16:37:03.436Z,64.72
2023-01-12T16:39:31.001Z,65.01
2023-01-12T16:42:03.605Z,65.03
2023-01-12T16:44:31.815Z,65.16
2023-01-12T16:46:59.431Z,65.21
2023-01-12T16:49:26.849Z,66.11
2023-01-12T16:51:54.439Z,65.51
2023-01-12T16:54:22.138Z,65.48
2023-01-12T16:56:49.569Z,65.37
2023-01-12T16:59:16.941Z,65.30
2023-01-12T17:01:44.669Z,65.48
2023-01-12T17:04:12.491Z,65.86
2023-01-12T17:06:40.317Z,65.70
2023-01-12T17:09:08.242Z,65.52
2023-01-12T17:11:35.795Z,65.48
2023-01-12T17:14:23.096Z,65.57
2023-01-12T17:16:58.031Z,65.71
2023-01-12T17:19:26.194Z,65.96
2023-01-12T17:21:54.894Z,66.17
2023-01-12T17:24:22.573Z,65.79
2023-01-12T17:26:51.608Z,66.65
2023-01-12T17:29:20.551Z,66.63
2023-01-12T17:31:48.180Z,66.10
2023-01-12T17:34:15.656Z,66.37
2023-01-12T17:36:43.525Z,66.02
2023-01-12T17:39:10.896Z,65.96
2023-01-12T17:41:57.209Z,65.81
2023-01-12T17:44:24.838Z,65.91
2023-01-12T17:46:52.472Z,65.86
2023-01-12T17:49:19.830Z,65.80
2023-01-12T17:51:47.804Z,65.78
2023-01-12T17:54:15.507Z,66.33
2023-01-12T17:56:43.024Z,66.65
2023-01-12T17:59:18.185Z,66.23
2023-01-12T18:01:46.191Z,65.87
2023-01-12T18:04:14.181Z,65.68
2023-01-12T18:06:41.580Z,66.39
2023-01-12T18:09:10.456Z,66.40
2023-01-12T18:11:38.671Z,65.90
2023-01-12T18:14:06.026Z,65.75
2023-01-12T18:16:33.449Z,66.38
2023-01-12T18:19:05.874Z,66.04
2023-01-12T18:21:33.337Z,65.45
2023-01-12T18:24:01.020Z,65.82
2023-01-12T18:26:32.993Z,65.84
2023-01-12T18:29:00.684Z,65.84
2023-01-12T18:31:31.468Z,65.62
2023-01-12T18:34:05.383Z,65.43
2023-01-12T18:36:37.452Z,65.29
2023-01-12T18:39:06.313Z,65.50
2023-01-12T18:41:56.401Z,65.44
2023-01-12T18:44:24.242Z,65.26
2023-01-12T18:47:10.639Z,65.40
2023-01-12T18:49:39.605Z,65.45
2023-01-12T18:52:27.526Z,65.67
2023-01-12T18:54:55.248Z,65.45
2023-01-12T18:57:24.409Z,65.50
2023-01-12T18:59:54.176Z,65.37
2023-01-12T19:02:21.895Z,65.37
2023-01-12T19:04:49.720Z,65.89
2023-01-12T19:07:19.276Z,65.65
2023-01-12T19:09:46.887Z,65.81
2023-01-12T19:12:14.495Z,65.97
2023-01-12T19:15:00.866Z,65.50
2023-01-12T19:17:29.813Z,65.57
2023-01-12T19:19:58.104Z,65.41
2023-01-12T19:22:44.504Z,65.64
2023-01-12T19:25:35.596Z,65.31
2023-01-12T19:28:22.177Z,64.81
2023-01-12T19:30:49.824Z,65.76
2023-01-12T19:33:17.337Z,65.18
2023-01-12T19:35:45.368Z,65.50
2023-01-12T19:38:13.876Z,65.34
2023-01-12T19:40:46.583Z,65.34
2023-01-12T19:43:23.464Z,65.39
2023-01-12T19:45:51.551Z,65.60
2023-01-12T19:48:20.978Z,65.43
2023-01-12T19:50:48.486Z,65.20
2023-01-12T19:53:18.588Z,65.34
2023-01-12T19:55:46.378Z,65.50
2023-01-12T19:58:13.946Z,66.26
2023-01-12T20:00:46.246Z,65.46
2023-01-12T20:03:15.122Z,65.57
2023-01-12T20:05:42.969Z,65.28
2023-01-12T20:08:11.259Z,65.25
2023-01-12T20:10:38.949Z,65.23
2023-01-12T20:13:06.748Z,65.20
2023-01-12T20:15:34.517Z,65.35
2023-01-12T20:18:03.095Z,65.62
2023-01-12T20:20:30.428Z,65.91
2023-01-12T20:22:57.789Z,65.91
2023-01-12T20:25:27.942Z,65.58
2023-01-12T20:27:55.512Z,65.50
2023-01-12T20:30:37.108Z,65.59
2023-01-12T20:33:06.486Z,64.98
2023-01-12T20:35:35.015Z,65.34
2023-01-12T20:38:03.151Z,65.61
2023-01-12T20:40:30.793Z,65.68
2023-01-12T20:42:58.415Z,66.30
2023-01-12T20:45:25.747Z,66.01
2023-01-12T20:47:53.386Z,66.61
2023-01-12T20:50:20.777Z,65.93
2023-01-12T20:52:49.094Z,66.02
2023-01-12T20:55:16.776Z,65.57
2023-01-12T20:57:44.156Z,65.59
2023-01-12T21:00:12.524Z,66.13
2023-01-12T21:02:40.604Z,65.93
2023-01-12T21:05:08.901Z,66.23
2023-01-12T21:07:36.309Z,66.16
2023-01-12T21:10:04.320Z,66.18
2023-01-12T21:12:31.751Z,66.61
2023-01-12T21:14:59.096Z,65.67
2023-01-12T21:17:26.717Z,66.13
2023-01-12T21:19:54.086Z,65.78
2023-01-12T21:22:21.464Z,66.12
2023-01-12T21:24:50.385Z,66.14
2023-01-12T21:27:17.761Z,66.05
2023-01-12T21:29:45.907Z,65.64
2023-01-12T21:32:13.928Z,65.81
2023-01-12T21:34:41.260Z,65.66
2023-01-12T21:37:08.719Z,65.60
2023-01-12T21:39:36.479Z,65.73
2023-01-12T21:42:22.379Z,65.72
2023-01-12T21:44:50.115Z,65.65
2023-01-12T21:47:17.480Z,65.78
2023-01-12T21:49:44.857Z,66.40
2023-01-12T21:52:12.556Z,65.68
2023-01-12T21:54:39.955Z,66.48
2023-01-12T21:57:07.304Z,66.48
2023-01-12T21:59:34.933Z,65.67
2023-01-12T22:02:02.461Z,65.96
2023-01-12T22:04:32.051Z,66.03
2023-01-12T22:06:59.416Z,67.15
2023-01-12T22:09:29.293Z,66.76
2023-01-12T22:11:56.874Z,66.52
2023-01-12T22:14:24.322Z,66.28
2023-01-12T22:16:51.822Z,66.23
2023-01-12T22:19:19.442Z,66.92
2023-01-12T22:21:46.968Z,66.17
2023-01-12T22:24:14.333Z,66.21
2023-01-12T22:26:41.929Z,66.44
2023-01-12T22:29:09.261Z,67.01
2023-01-12T22:31:36.764Z,65.88
2023-01-12T22:34:04.863Z,66.15
2023-01-12T22:36:34.871Z,65.74
2023-01-12T22:39:02.702Z,64.52
2023-01-12T22:41:30.329Z,65.00
2023-01-12T22:43:57.741Z,65.11
2023-01-12T22:46:25.858Z,64.61
2023-01-12T22:48:57.246Z,64.87
2023-01-12T22:51:25.291Z,64.94
2023-01-12T22:53:55.900Z,64.54
2023-01-12T22:56:23.314Z,65.19
2023-01-12T22:58:51.961Z,64.72
2023-01-12T23:01:20.103Z,64.81
2023-01-12T23:03:48.562Z,65.23
2023-01-12T23:06:16.294Z,64.93
2023-01-12T23:08:44.374Z,64.87
2023-01-12T23:11:13.526Z,64.26
2023-01-12T23:13:41.683Z,64.50
2023-01-12T23:16:10.052Z,64.04
2023-01-12T23:18:38.715Z,65.24
2023-01-12T23:21:26.525Z,64.85
2023-01-12T23:23:55.900Z,64.75
2023-01-12T23:26:31.245Z,64.60
2023-01-12T23:29:00.294Z,64.74
2023-01-12T23:31:29.377Z,65.13
2023-01-12T23:33:59.849Z,64.90
2023-01-12T23:36:28.859Z,65.26
2023-01-12T23:39:00.280Z,65.04
2023-01-12T23:41:28.517Z,64.81
2023-01-12T23:43:57.522Z,64.69
2023-01-12T23:46:25.265Z,64.18
2023-01-12T23:48:54.503Z,64.29
2023-01-12T23:51:21.967Z,65.16
2023-01-12T23:53:51.955Z,64.60
2023-01-12T23:56:19.812Z,64.80
2023-01-12T23:58:47.825Z,64.33
